createdAt,value
2019-03-08T00:01:37.761Z,94924.23
2019-03-08T00:04:04.183Z,94932.75
2019-03-08T00:06:30.339Z,94928.81
2019-03-08T00:08:56.578Z,94933.41
2019-03-08T00:11:22.889Z,94925.22
2019-03-08T00:13:49.087Z,94928.16
2019-03-08T00:16:15.237Z,94928.32
2019-03-08T00:18:41.567Z,94930.62
2019-03-08T00:21:07.726Z,94919.64
2019-03-08T00:23:35.294Z,94935.23
2019-03-08T00:26:01.554Z,94936.05
2019-03-08T00:28:27.664Z,94946.55
2019-03-08T00:30:53.901Z,94955.41
2019-03-08T00:33:20.168Z,94954.42
2019-03-08T00:35:46.370Z,94958.36
2019-03-08T00:38:12.513Z,94945.08
2019-03-08T00:40:38.815Z,94941.44
2019-03-08T00:43:04.962Z,94939.95
2019-03-08T00:45:31.352Z,94955.66
2019-03-08T00:47:57.602Z,94960.20
2019-03-08T00:50:24.880Z,94936.11
2019-03-08T00:52:51.022Z,94935.28
2019-03-08T00:55:17.191Z,94949.22
2019-03-08T00:57:43.386Z,94934.64
2019-03-08T01:00:18.615Z,94934.97
2019-03-08T01:02:44.887Z,94930.71
2019-03-08T01:05:12.041Z,94926.30
2019-03-08T01:07:38.419Z,94928.59
2019-03-08T01:10:14.496Z,94920.92
2019-03-08T01:12:40.955Z,94922.55
2019-03-08T01:15:10.432Z,94930.42
2019-03-08T01:17:37.175Z,94932.05
2019-03-08T01:20:06.007Z,94916.81
2019-03-08T01:22:32.117Z,94918.29
2019-03-08T01:24:59.311Z,94928.17
2019-03-08T01:27:25.602Z,94930.63
2019-03-08T01:29:52.161Z,94915.38
2019-03-08T01:32:18.438Z,94915.38
2019-03-08T01:34:44.706Z,94915.39
2019-03-08T01:37:10.942Z,94924.58
2019-03-08T01:39:37.072Z,94924.91
2019-03-08T01:42:03.575Z,94915.20
2019-03-08T01:44:29.694Z,94921.66
2019-03-08T01:46:56.213Z,94924.94
2019-03-08T01:49:22.360Z,94903.27
2019-03-08T01:51:48.630Z,94909.48
2019-03-08T01:54:14.846Z,94899.80
2019-03-08T01:56:42.856Z,94889.98
2019-03-08T01:59:09.184Z,94890.79
2019-03-08T02:01:35.425Z,94883.56
2019-03-08T02:04:01.695Z,94880.13
2019-03-08T02:06:27.917Z,94870.11
2019-03-08T02:08:54.031Z,94870.78
2019-03-08T02:11:20.274Z,94870.09
2019-03-08T02:13:46.473Z,94875.36
2019-03-08T02:16:12.778Z,94862.20
2019-03-08T02:18:38.930Z,94867.46
2019-03-08T02:21:07.118Z,94865.18
2019-03-08T02:23:33.350Z,94865.19
2019-03-08T02:25:59.583Z,94860.75
2019-03-08T02:28:25.915Z,94833.69
2019-03-08T02:30:52.094Z,94849.76
2019-03-08T02:33:18.294Z,94831.72
2019-03-08T02:35:44.399Z,94825.17
2019-03-08T02:38:10.717Z,94831.23
2019-03-08T02:40:38.041Z,94834.84
2019-03-08T02:43:09.133Z,94820.56
2019-03-08T02:45:35.214Z,94832.05
2019-03-08T02:48:01.426Z,94817.63
2019-03-08T02:50:27.735Z,94824.00
2019-03-08T02:52:54.079Z,94810.25
2019-03-08T02:55:20.266Z,94812.20
2019-03-08T02:57:46.803Z,94813.69
2019-03-08T03:00:14.559Z,94810.56
2019-03-08T03:02:40.946Z,94820.89
2019-03-08T03:05:07.376Z,94822.20
2019-03-08T03:07:33.575Z,94823.19
2019-03-08T03:09:59.770Z,94823.34
2019-03-08T03:12:25.967Z,94842.22
2019-03-08T03:14:52.363Z,94855.32
2019-03-08T03:17:18.461Z,94834.98
2019-03-08T03:19:44.794Z,94844.52
2019-03-08T03:22:10.910Z,94842.55
2019-03-08T03:24:37.112Z,94855.83
2019-03-08T03:27:03.309Z,94865.52
2019-03-08T03:29:29.876Z,94853.85
2019-03-08T03:31:55.959Z,94864.84
2019-03-08T03:34:22.378Z,94855.84
2019-03-08T03:36:48.476Z,94872.57
2019-03-08T03:39:14.704Z,94874.84
2019-03-08T03:41:40.815Z,94878.45
2019-03-08T03:44:07.228Z,94867.95
2019-03-08T03:46:33.410Z,94875.19
2019-03-08T03:48:59.687Z,94878.30
2019-03-08T03:51:26.487Z,94883.55
2019-03-08T03:53:52.575Z,94866.81
2019-03-08T03:56:18.811Z,94877.98
2019-03-08T03:58:45.032Z,94890.44
2019-03-08T04:01:22.011Z,94871.75
2019-03-08T04:03:48.233Z,94879.11
2019-03-08T04:06:14.321Z,94874.84
2019-03-08T04:08:40.624Z,94882.39
2019-03-08T04:11:06.731Z,94893.39
2019-03-08T04:13:32.961Z,94882.23
2019-03-08T04:15:59.094Z,94887.17
2019-03-08T04:18:25.303Z,94907.83
2019-03-08T04:20:51.496Z,94885.20
2019-03-08T04:23:17.707Z,94881.42
2019-03-08T04:25:44.062Z,94888.31
2019-03-08T04:28:10.230Z,94871.75
2019-03-08T04:30:36.465Z,94862.05
2019-03-08T04:33:02.944Z,94864.03
2019-03-08T04:35:29.032Z,94880.44
2019-03-08T04:37:55.281Z,94874.35
2019-03-08T04:40:21.386Z,94878.13
2019-03-08T04:42:47.676Z,94872.37
2019-03-08T04:45:14.440Z,94854.02
2019-03-08T04:47:40.885Z,94883.87
2019-03-08T04:50:10.405Z,94885.16
2019-03-08T04:52:36.731Z,94897.30
2019-03-08T04:55:09.173Z,94888.44
2019-03-08T04:57:35.405Z,94892.22
2019-03-08T05:00:03.300Z,94888.13
2019-03-08T05:02:29.657Z,94898.27
2019-03-08T05:04:55.808Z,94901.72
2019-03-08T05:07:21.971Z,94904.70
2019-03-08T05:09:48.140Z,94910.08
2019-03-08T05:12:14.319Z,94898.11
2019-03-08T05:14:40.560Z,94892.70
2019-03-08T05:17:06.796Z,94894.81
2019-03-08T05:19:33.176Z,94891.88
2019-03-08T05:21:59.432Z,94889.57
2019-03-08T05:24:25.683Z,94909.41
2019-03-08T05:26:52.876Z,94894.50
2019-03-08T05:29:19.041Z,94898.24
2019-03-08T05:31:45.249Z,94881.67
2019-03-08T05:34:11.344Z,94888.58
2019-03-08T05:36:37.758Z,94891.37
2019-03-08T05:39:06.993Z,94871.20
2019-03-08T05:41:33.310Z,94894.66
2019-03-08T05:43:59.457Z,94880.08
2019-03-08T05:46:25.693Z,94897.77
2019-03-08T05:48:51.909Z,94900.06
2019-03-08T05:51:18.242Z,94900.86
2019-03-08T05:53:44.526Z,94907.94
2019-03-08T05:56:10.808Z,94918.59
2019-03-08T05:58:37.074Z,94919.73
2019-03-08T06:01:03.440Z,94919.73
2019-03-08T06:03:29.679Z,94931.03
2019-03-08T06:05:56.087Z,94938.73
2019-03-08T06:08:22.407Z,94938.26
2019-03-08T06:10:48.621Z,94934.64
2019-03-08T06:13:14.744Z,94944.97
2019-03-08T06:15:40.969Z,94923.52
2019-03-08T06:18:07.097Z,94931.38
2019-03-08T06:20:33.329Z,94953.99
2019-03-08T06:22:59.658Z,94945.93
2019-03-08T06:25:26.164Z,94953.31
2019-03-08T06:27:52.356Z,94961.98
2019-03-08T06:30:18.842Z,94978.39
2019-03-08T06:32:46.077Z,94977.91
2019-03-08T06:35:12.217Z,94992.81
2019-03-08T06:37:38.426Z,95004.94
2019-03-08T06:40:08.925Z,95009.70
2019-03-08T06:42:35.242Z,95007.92
2019-03-08T06:45:01.471Z,95014.96
2019-03-08T06:47:27.576Z,95028.06
2019-03-08T06:49:53.960Z,95032.31
2019-03-08T06:52:20.282Z,95033.63
2019-03-08T06:54:46.498Z,95046.27
2019-03-08T06:57:12.885Z,95058.86
2019-03-08T06:59:41.083Z,95067.08
2019-03-08T07:02:07.287Z,95082.30
2019-03-08T07:04:33.483Z,95085.08
2019-03-08T07:06:59.768Z,95080.67
2019-03-08T07:09:26.022Z,95069.03
2019-03-08T07:11:52.313Z,95069.20
2019-03-08T07:14:18.532Z,95060.84
2019-03-08T07:16:44.674Z,95087.22
2019-03-08T07:19:10.895Z,95099.05
2019-03-08T07:21:38.902Z,95109.29
2019-03-08T07:24:07.038Z,95103.25
2019-03-08T07:26:35.068Z,95108.35
2019-03-08T07:29:09.408Z,95108.20
2019-03-08T07:31:37.474Z,95122.27
2019-03-08T07:34:11.934Z,95131.81
2019-03-08T07:36:56.898Z,95113.97
2019-03-08T07:39:34.130Z,95114.80
2019-03-08T07:42:18.662Z,95134.19
2019-03-08T07:45:03.514Z,95142.91
2019-03-08T07:47:37.357Z,95141.63
2019-03-08T07:50:26.172Z,95150.50
2019-03-08T07:52:54.304Z,95161.97
2019-03-08T07:55:22.461Z,95157.56
2019-03-08T07:57:53.248Z,95174.54
2019-03-08T08:00:21.403Z,95177.53
2019-03-08T08:02:52.514Z,95182.80
2019-03-08T08:05:23.561Z,95188.25
2019-03-08T08:07:55.149Z,95198.16
2019-03-08T08:10:41.599Z,95194.57
2019-03-08T08:13:18.967Z,95222.00
2019-03-08T08:15:47.147Z,95207.23
2019-03-08T08:18:17.816Z,95218.73
2019-03-08T08:20:51.938Z,95216.11
2019-03-08T08:23:23.156Z,95210.69
2019-03-08T08:25:53.763Z,95241.08
2019-03-08T08:28:22.360Z,95229.25
2019-03-08T08:31:05.540Z,95233.52
2019-03-08T08:33:33.559Z,95236.66
2019-03-08T08:36:01.673Z,95240.92
2019-03-08T08:38:43.085Z,95251.91
2019-03-08T08:41:23.259Z,95246.02
2019-03-08T08:43:54.209Z,95259.16
2019-03-08T08:46:39.150Z,95243.55
2019-03-08T08:49:07.176Z,95257.52
2019-03-08T08:51:44.589Z,95246.20
2019-03-08T08:54:12.664Z,95284.33
2019-03-08T08:56:46.549Z,95248.84
2019-03-08T08:59:17.633Z,95266.08
2019-03-08T09:02:00.894Z,95280.90
2019-03-08T09:04:46.093Z,95276.13
2019-03-08T09:07:34.056Z,95280.06
2019-03-08T09:10:06.371Z,95283.87
2019-03-08T09:12:34.549Z,95295.71
2019-03-08T09:15:11.842Z,95297.31
2019-03-08T09:17:56.819Z,95294.20
2019-03-08T09:20:41.867Z,95298.27
2019-03-08T09:23:26.594Z,95311.94
2019-03-08T09:26:11.570Z,95338.42
2019-03-08T09:28:39.698Z,95321.45
2019-03-08T09:31:07.932Z,95331.30
2019-03-08T09:33:54.096Z,95318.31
2019-03-08T09:36:36.806Z,95341.21
2019-03-08T09:39:12.748Z,95343.00
2019-03-08T09:41:40.742Z,95354.64
2019-03-08T09:44:27.064Z,95352.69
2019-03-08T09:46:58.141Z,95341.86
2019-03-08T09:49:44.577Z,95353.25
2019-03-08T09:52:16.332Z,95374.77
2019-03-08T09:54:44.441Z,95368.39
2019-03-08T09:57:30.587Z,95375.17
2019-03-08T10:00:15.499Z,95383.02
2019-03-08T10:02:46.336Z,95383.66
2019-03-08T10:05:17.071Z,95396.81
2019-03-08T10:07:45.463Z,95400.54
2019-03-08T10:10:16.213Z,95400.54
2019-03-08T10:12:47.115Z,95393.44
2019-03-08T10:15:33.547Z,95415.27
2019-03-08T10:18:18.503Z,95389.81
2019-03-08T10:20:52.627Z,95414.09
2019-03-08T10:23:26.710Z,95419.03
2019-03-08T10:25:54.883Z,95414.42
2019-03-08T10:28:23.264Z,95425.14
2019-03-08T10:31:09.538Z,95417.80
2019-03-08T10:33:46.208Z,95423.58
2019-03-08T10:36:22.891Z,95419.52
2019-03-08T10:39:03.186Z,95425.98
2019-03-08T10:41:39.378Z,95422.57
2019-03-08T10:44:12.312Z,95420.99
2019-03-08T10:46:49.510Z,95428.41
2019-03-08T10:49:17.591Z,95420.86
2019-03-08T10:51:48.572Z,95417.91
2019-03-08T10:54:19.169Z,95425.65
2019-03-08T10:57:03.979Z,95432.87
2019-03-08T10:59:44.204Z,95429.92
2019-03-08T11:02:15.250Z,95437.16
2019-03-08T11:04:50.274Z,95437.81
2019-03-08T11:07:21.330Z,95432.84
2019-03-08T11:09:49.343Z,95435.48
2019-03-08T11:12:23.518Z,95432.33
2019-03-08T11:15:00.511Z,95440.91
2019-03-08T11:17:34.907Z,95448.64
2019-03-08T11:20:15.083Z,95458.17
2019-03-08T11:23:01.136Z,95458.34
2019-03-08T11:25:38.273Z,95463.76
2019-03-08T11:28:21.113Z,95461.09
2019-03-08T11:31:04.586Z,95458.30
2019-03-08T11:33:45.217Z,95451.72
2019-03-08T11:36:13.426Z,95465.35
2019-03-08T11:38:44.310Z,95465.98
2019-03-08T11:41:18.351Z,95468.78
2019-03-08T11:43:46.814Z,95476.50
2019-03-08T11:46:17.614Z,95465.30
2019-03-08T11:49:04.075Z,95480.39
2019-03-08T11:51:47.204Z,95485.77
2019-03-08T11:54:18.190Z,95498.70
2019-03-08T11:56:46.202Z,95487.91
2019-03-08T11:59:14.351Z,95497.28
2019-03-08T12:01:42.375Z,95476.66
2019-03-08T12:04:27.363Z,95477.35
2019-03-08T12:06:55.386Z,95476.98
2019-03-08T12:09:32.332Z,95473.45
2019-03-08T12:12:00.346Z,95479.78
2019-03-08T12:14:31.259Z,95477.02
2019-03-08T12:17:02.186Z,95483.30
2019-03-08T12:19:42.596Z,95471.41
2019-03-08T12:22:29.067Z,95470.33
2019-03-08T12:25:01.378Z,95469.88
2019-03-08T12:27:38.687Z,95475.20
2019-03-08T12:30:19.275Z,95470.81
2019-03-08T12:33:04.009Z,95473.72
2019-03-08T12:35:35.084Z,95488.87
2019-03-08T12:38:05.786Z,95491.20
2019-03-08T12:40:33.887Z,95491.19
2019-03-08T12:43:08.077Z,95492.83
2019-03-08T12:45:47.226Z,95477.98
2019-03-08T12:48:31.946Z,95488.53
2019-03-08T12:51:06.329Z,95517.80
2019-03-08T12:53:43.722Z,95496.38
2019-03-08T12:56:11.867Z,95513.46
2019-03-08T12:58:45.403Z,95523.98
2019-03-08T13:01:16.351Z,95539.42
2019-03-08T13:04:00.991Z,95557.46
2019-03-08T13:06:31.876Z,95561.02
2019-03-08T13:09:06.119Z,95560.28
2019-03-08T13:11:33.710Z,95551.27
2019-03-08T13:13:59.857Z,95558.95
2019-03-08T13:16:26.082Z,95573.03
2019-03-08T13:18:52.290Z,95575.81
2019-03-08T13:21:18.472Z,95581.94
2019-03-08T13:23:45.827Z,95584.17
2019-03-08T13:26:12.100Z,95581.25
2019-03-08T13:28:38.310Z,95589.97
2019-03-08T13:31:04.527Z,95583.55
2019-03-08T13:33:30.747Z,95588.75
2019-03-08T13:35:56.895Z,95598.81
2019-03-08T13:38:23.079Z,95592.92
2019-03-08T13:40:49.257Z,95588.91
2019-03-08T13:43:15.486Z,95587.83
2019-03-08T13:45:41.579Z,95597.80
2019-03-08T13:48:08.195Z,95592.00
2019-03-08T13:50:34.352Z,95597.30
2019-03-08T13:53:00.571Z,95595.95
2019-03-08T13:55:26.718Z,95610.83
2019-03-08T13:57:52.886Z,95617.57
2019-03-08T14:00:19.444Z,95621.52
2019-03-08T14:02:45.666Z,95619.80
2019-03-08T14:05:12.813Z,95623.15
2019-03-08T14:07:39.010Z,95630.09
2019-03-08T14:10:11.835Z,95634.66
2019-03-08T14:12:37.959Z,95631.73
2019-03-08T14:15:07.114Z,95628.78
2019-03-08T14:17:33.297Z,95635.34
2019-03-08T14:19:59.441Z,95637.92
2019-03-08T14:22:25.910Z,95631.80
2019-03-08T14:24:52.084Z,95636.08
2019-03-08T14:27:18.736Z,95648.82
2019-03-08T14:29:45.586Z,95638.33
2019-03-08T14:32:14.056Z,95638.09
2019-03-08T14:37:09.387Z,95663.16
2019-03-08T14:39:40.431Z,95659.25
2019-03-08T14:42:16.570Z,95661.70
2019-03-08T14:44:45.841Z,95663.92
2019-03-08T14:47:14.210Z,95664.91
2019-03-08T14:49:40.811Z,95665.89
2019-03-08T14:52:07.570Z,95666.66
2019-03-08T14:54:34.684Z,95672.39
2019-03-08T14:57:01.263Z,95675.00
2019-03-08T14:59:30.639Z,95666.63
2019-03-08T15:01:56.746Z,95669.44
2019-03-08T15:04:23.652Z,95670.86
2019-03-08T15:06:50.149Z,95676.18
2019-03-08T15:09:16.384Z,95680.18
2019-03-08T15:11:42.609Z,95674.50
2019-03-08T15:14:08.826Z,95681.70
2019-03-08T15:16:35.389Z,95680.98
2019-03-08T15:19:04.025Z,95691.32
2019-03-08T15:21:33.321Z,95675.64
2019-03-08T15:23:59.088Z,95687.31
2019-03-08T15:26:25.195Z,95675.17
2019-03-08T15:28:51.311Z,95681.66
2019-03-08T15:31:18.505Z,95686.31
2019-03-08T15:33:45.017Z,95693.19
2019-03-08T15:36:11.542Z,95695.11
2019-03-08T15:38:38.645Z,95700.81
2019-03-08T15:41:04.938Z,95698.73
2019-03-08T15:43:31.634Z,95698.88
2019-03-08T15:45:58.375Z,95709.02
2019-03-08T15:48:28.552Z,95711.72
2019-03-08T15:50:59.594Z,95718.88
2019-03-08T15:53:27.018Z,95721.92
2019-03-08T15:56:02.351Z,95719.72
2019-03-08T15:58:32.333Z,95718.31
2019-03-08T16:01:18.545Z,95717.21
2019-03-08T16:03:46.789Z,95721.09
2019-03-08T16:06:16.060Z,95723.17
2019-03-08T16:08:43.072Z,95726.97
2019-03-08T16:11:10.030Z,95729.59
2019-03-08T16:13:36.906Z,95732.02
2019-03-08T16:16:03.409Z,95735.09
2019-03-08T16:18:29.792Z,95730.96
2019-03-08T16:20:56.061Z,95736.36
2019-03-08T16:23:22.247Z,95740.53
2019-03-08T16:25:48.862Z,95742.84
2019-03-08T16:28:15.932Z,95744.67
2019-03-08T16:31:04.258Z,95746.05
2019-03-08T16:33:39.070Z,95750.97
2019-03-08T16:36:16.812Z,95756.77
2019-03-08T16:38:45.761Z,95751.55
2019-03-08T16:41:31.221Z,95752.25
2019-03-08T16:44:05.788Z,95758.89
2019-03-08T16:46:52.327Z,95761.02
2019-03-08T16:49:33.724Z,95764.33
2019-03-08T16:52:16.240Z,95768.44
2019-03-08T16:54:47.729Z,95767.48
2019-03-08T16:57:16.442Z,95779.11
2019-03-08T16:59:55.400Z,95790.00
2019-03-08T17:02:23.706Z,95794.20
2019-03-08T17:04:58.212Z,95790.12
2019-03-08T17:07:26.377Z,95801.84
2019-03-08T17:09:58.059Z,95797.01
2019-03-08T17:12:38.125Z,95805.47
2019-03-08T17:15:20.938Z,95805.27
2019-03-08T17:17:58.040Z,95810.77
2019-03-08T17:20:26.021Z,95824.20
2019-03-08T17:23:11.271Z,95829.38
2019-03-08T17:25:55.743Z,95833.33
2019-03-08T17:28:29.075Z,95834.42
2019-03-08T17:30:58.388Z,95836.12
2019-03-08T17:33:33.216Z,95846.73
2019-03-08T17:36:02.633Z,95847.38
2019-03-08T17:38:38.817Z,95854.66
2019-03-08T17:41:10.099Z,95853.27
2019-03-08T17:43:40.568Z,95856.14
2019-03-08T17:46:17.430Z,95857.84
2019-03-08T17:49:03.859Z,95857.84
2019-03-08T17:51:44.492Z,95867.00
2019-03-08T17:54:15.401Z,95861.81
2019-03-08T17:56:52.958Z,95870.26
2019-03-08T17:59:32.877Z,95879.29
2019-03-08T18:02:01.088Z,95889.77
2019-03-08T18:04:44.249Z,95888.92
2019-03-08T18:07:12.340Z,95894.16
2019-03-08T18:09:58.996Z,95900.70
2019-03-08T18:12:43.701Z,95902.02
2019-03-08T18:15:18.188Z,95906.95
2019-03-08T18:18:02.519Z,95913.27
2019-03-08T18:20:33.084Z,95907.66
2019-03-08T18:23:18.475Z,95924.46
2019-03-08T18:25:48.273Z,95915.89
2019-03-08T18:31:50.773Z,95928.52
2019-03-08T18:34:19.994Z,95919.70
2019-03-08T18:36:56.373Z,95922.56
2019-03-08T18:39:36.519Z,95925.68
2019-03-08T18:42:23.205Z,95931.37
2019-03-08T18:44:54.485Z,95932.81
2019-03-08T18:47:28.600Z,95941.63
2019-03-08T18:50:02.833Z,95946.61
2019-03-08T18:52:47.952Z,95947.83
2019-03-08T18:55:15.950Z,95952.72
2019-03-08T18:58:00.666Z,95952.34
2019-03-08T19:00:43.953Z,95958.17
2019-03-08T19:03:22.452Z,95960.32
2019-03-08T19:05:56.398Z,95963.16
2019-03-08T19:08:44.442Z,95970.05
2019-03-08T19:11:12.473Z,95965.90
2019-03-08T19:13:40.514Z,95966.37
2019-03-08T19:16:17.336Z,95967.92
2019-03-08T19:18:54.479Z,95960.19
2019-03-08T19:21:42.586Z,95961.25
2019-03-08T19:24:24.329Z,95963.53
2019-03-08T19:27:09.320Z,95964.00
2019-03-08T19:29:50.661Z,95959.48
2019-03-08T19:32:45.583Z,95965.66
2019-03-08T19:35:13.663Z,95966.37
2019-03-08T19:37:51.099Z,95963.00
2019-03-08T19:40:19.422Z,95964.19
2019-03-08T19:43:04.367Z,95966.93
2019-03-08T19:45:32.654Z,95957.14
2019-03-08T19:48:09.856Z,95949.75
2019-03-08T19:50:50.279Z,95961.37
2019-03-08T19:53:37.086Z,95954.48
2019-03-08T19:56:12.860Z,95955.09
2019-03-08T19:58:50.699Z,95962.47
2019-03-08T20:01:24.867Z,95961.28
2019-03-08T20:04:09.904Z,95957.61
2019-03-08T20:06:43.699Z,95954.41
2019-03-08T20:09:13.638Z,95957.77
2019-03-08T20:12:00.284Z,95949.33
2019-03-08T20:14:40.547Z,95958.02
2019-03-08T20:17:12.562Z,95955.44
2019-03-08T20:19:41.656Z,95949.02
2019-03-08T20:22:12.468Z,95949.14
2019-03-08T20:24:57.196Z,95948.08
2019-03-08T20:27:44.601Z,95945.46
2019-03-08T20:30:13.071Z,95952.97
2019-03-08T20:32:44.648Z,95952.59
2019-03-08T20:35:12.790Z,95947.98
2019-03-08T20:37:47.246Z,95948.67
2019-03-08T20:40:32.295Z,95944.87
2019-03-08T20:43:04.214Z,95949.48
2019-03-08T20:45:32.593Z,95950.10
2019-03-08T20:48:01.091Z,95941.06
2019-03-08T20:50:27.377Z,95945.12
2019-03-08T20:52:56.588Z,95948.67
2019-03-08T20:55:22.859Z,95950.79
2019-03-08T20:57:49.277Z,95944.87
2019-03-08T21:00:16.066Z,95947.36
2019-03-08T21:02:42.443Z,95956.27
2019-03-08T21:05:08.678Z,95955.65
2019-03-08T21:07:37.293Z,95950.55
2019-03-08T21:10:10.613Z,95948.48
2019-03-08T21:12:37.355Z,95964.44
2019-03-08T21:15:12.198Z,95970.86
2019-03-08T21:17:39.557Z,95986.53
2019-03-08T21:20:10.671Z,95989.12
2019-03-08T21:22:36.849Z,95982.16
2019-03-08T21:25:08.512Z,95981.11
2019-03-08T21:27:35.450Z,95980.38
2019-03-08T21:30:03.160Z,95976.80
2019-03-08T21:32:31.058Z,95981.91
2019-03-08T21:34:57.297Z,95980.84
2019-03-08T21:37:24.381Z,95986.22
2019-03-08T21:39:50.734Z,95981.19
2019-03-08T21:42:17.171Z,95975.48
2019-03-08T21:44:43.338Z,95975.48
2019-03-08T21:47:10.326Z,95975.86
2019-03-08T21:49:36.941Z,95977.73
2019-03-08T21:52:04.886Z,95971.19
2019-03-08T21:54:31.020Z,95960.59
2019-03-08T21:56:57.824Z,95961.08
2019-03-08T21:59:23.946Z,95954.75
2019-03-08T22:01:50.769Z,95955.94
2019-03-08T22:04:18.942Z,95951.54
2019-03-08T22:06:45.064Z,95942.58
2019-03-08T22:09:32.007Z,95937.69
2019-03-08T22:11:58.799Z,95934.60
2019-03-08T22:14:24.995Z,95930.41
2019-03-08T22:16:51.310Z,95929.11
2019-03-08T22:19:17.872Z,95930.03
2019-03-08T22:21:43.939Z,95917.06
2019-03-08T22:24:13.736Z,95920.86
2019-03-08T22:26:38.679Z,95920.52
2019-03-08T22:29:06.153Z,95910.47
2019-03-08T22:31:32.920Z,95910.45
2019-03-08T22:34:01.897Z,95904.95
2019-03-08T22:36:27.802Z,95899.19
2019-03-08T22:38:54.404Z,95893.42
2019-03-08T22:41:20.936Z,95904.92
2019-03-08T22:43:47.123Z,95900.39
2019-03-08T22:46:13.281Z,95898.61
2019-03-08T22:48:39.388Z,95896.54
2019-03-08T22:51:05.815Z,95887.50
2019-03-08T22:53:31.962Z,95884.75
2019-03-08T22:55:59.497Z,95889.59
2019-03-08T22:58:25.715Z,95882.44
2019-03-08T23:00:59.520Z,95879.22
2019-03-08T23:03:30.147Z,95876.86
2019-03-08T23:05:56.467Z,95870.78
2019-03-08T23:08:22.585Z,95871.38
2019-03-08T23:10:51.525Z,95868.63
2019-03-08T23:13:18.135Z,95868.36
2019-03-08T23:15:44.472Z,95867.69
2019-03-08T23:18:10.650Z,95881.31
2019-03-08T23:20:37.728Z,95866.27
2019-03-08T23:23:06.063Z,95868.63
2019-03-08T23:25:32.142Z,95864.83
2019-03-08T23:28:18.042Z,95862.52
2019-03-08T23:30:45.021Z,95861.00
2019-03-08T23:33:11.822Z,95859.76
2019-03-08T23:35:38.104Z,95863.83
2019-03-08T23:38:06.487Z,95862.85
2019-03-08T23:40:32.718Z,95868.53
2019-03-08T23:42:58.838Z,95852.54
2019-03-08T23:45:25.080Z,95860.14
2019-03-08T23:47:52.059Z,95847.30
2019-03-08T23:50:18.305Z,95844.81
2019-03-08T23:52:44.468Z,95848.95
2019-03-08T23:55:11.569Z,95845.98
2019-03-08T23:57:38.716Z,95848.61
